createdAt,value
2022-08-12T00:00:35.948Z,60.40
2022-08-12T00:03:23.121Z,60.60
2022-08-12T00:06:09.843Z,60.60
2022-08-12T00:08:58.043Z,60.80
2022-08-12T00:11:46.660Z,61.00
2022-08-12T00:14:33.317Z,61.30
2022-08-12T00:17:18.849Z,61.60
2022-08-12T00:20:04.805Z,61.70
2022-08-12T00:22:59.300Z,61.90
2022-08-12T00:26:22.731Z,61.90
2022-08-12T00:29:09.061Z,62.40
2022-08-12T00:31:54.195Z,62.50
2022-08-12T00:34:39.719Z,62.80
2022-08-12T00:37:25.436Z,63.10
2022-08-12T00:40:16.973Z,63.50
2022-08-12T00:42:46.553Z,64.10
2022-08-12T00:45:13.335Z,63.90
2022-08-12T00:47:40.666Z,64.20
2022-08-12T00:50:17.570Z,64.30
2022-08-12T00:52:51.792Z,64.40
2022-08-12T00:55:20.405Z,64.30
2022-08-12T00:57:51.805Z,64.40
2022-08-12T01:00:23.963Z,64.20
2022-08-12T01:02:58.584Z,64.40
2022-08-12T01:05:45.329Z,64.80
2022-08-12T01:08:32.527Z,65.10
2022-08-12T01:11:18.038Z,65.70
2022-08-12T01:13:50.402Z,66.00
2022-08-12T01:16:22.397Z,66.30
2022-08-12T01:18:53.168Z,66.30
2022-08-12T01:21:48.480Z,66.90
2022-08-12T01:24:59.779Z,67.40
2022-08-12T01:27:29.820Z,67.90
2022-08-12T01:29:59.733Z,68.20
2022-08-12T01:32:30.584Z,68.20
2022-08-12T01:35:01.054Z,68.40
2022-08-12T01:37:33.227Z,68.60
2022-08-12T01:40:36.919Z,68.70
2022-08-12T01:42:52.870Z,68.90
2022-08-12T01:45:24.295Z,69.60
2022-08-12T01:48:11.069Z,69.90
2022-08-12T01:51:06.554Z,70.50
2022-08-12T01:54:09.515Z,71.00
2022-08-12T01:57:05.446Z,71.40
2022-08-12T01:59:49.726Z,71.80
2022-08-12T02:02:46.312Z,72.40
2022-08-12T02:05:50.889Z,72.90
2022-08-12T02:09:05.846Z,73.40
2022-08-12T02:12:06.313Z,74.10
2022-08-12T02:15:13.516Z,74.70
2022-08-12T02:18:26.019Z,75.40
2022-08-12T02:21:15.510Z,75.70
2022-08-12T02:23:42.693Z,76.60
2022-08-12T02:26:12.395Z,77.20
2022-08-12T02:28:39.482Z,77.90
2022-08-12T02:31:09.147Z,78.40
2022-08-12T02:33:37.900Z,79.10
2022-08-12T02:36:05.999Z,79.50
2022-08-12T02:38:33.767Z,80.10
2022-08-12T02:41:05.068Z,80.80
2022-08-12T02:43:50.999Z,81.40
2022-08-12T02:46:49.059Z,82.00
2022-08-12T02:49:31.361Z,82.70
2022-08-12T02:52:00.930Z,83.40
2022-08-12T02:54:27.902Z,84.10
2022-08-12T02:56:55.330Z,84.60
2022-08-12T02:59:24.716Z,85.30
2022-08-12T03:02:03.169Z,85.60
2022-08-12T03:04:39.058Z,86.00
2022-08-12T03:07:14.747Z,86.40
2022-08-12T03:12:50.829Z,86.30
2022-08-12T03:15:22.973Z,87.10
2022-08-12T03:18:23.568Z,87.30
2022-08-12T03:20:47.735Z,87.40
2022-08-12T03:23:21.603Z,87.90
2022-08-12T03:25:57.099Z,88.50
2022-08-12T03:28:43.311Z,88.80
2022-08-12T03:31:11.028Z,89.30
2022-08-12T03:33:44.058Z,89.10
2022-08-12T03:36:29.367Z,89.80
2022-08-12T03:39:15.942Z,90.30
2022-08-12T03:41:59.604Z,90.40
2022-08-12T03:44:56.927Z,90.70
2022-08-12T03:47:50.226Z,90.90
2022-08-12T03:50:37.726Z,91.10
2022-08-12T03:53:26.611Z,91.30
2022-08-12T03:56:13.149Z,91.50
2022-08-12T03:58:58.588Z,91.70
2022-08-12T04:01:27.513Z,91.90
2022-08-12T04:03:55.073Z,92.10
2022-08-12T04:06:34.312Z,92.40
2022-08-12T04:09:16.373Z,92.50
2022-08-12T04:12:04.065Z,92.60
2022-08-12T04:14:33.163Z,92.80
2022-08-12T04:17:00.652Z,92.70
2022-08-12T04:19:27.880Z,93.00
2022-08-12T04:22:02.243Z,93.10
2022-08-12T04:24:36.067Z,93.30
2022-08-12T04:27:08.441Z,93.50
2022-08-12T04:30:30.427Z,93.70
2022-08-12T04:32:27.936Z,93.80
2022-08-12T04:34:55.166Z,94.00
2022-08-12T04:37:23.127Z,94.10
2022-08-12T04:39:51.539Z,94.20
2022-08-12T04:42:19.978Z,94.20
2022-08-12T04:44:47.968Z,94.10
2022-08-12T04:47:16.786Z,94.30
2022-08-12T04:49:46.325Z,94.10
2022-08-12T04:52:14.448Z,94.10
2022-08-12T04:54:43.710Z,93.70
2022-08-12T04:57:11.078Z,93.90
2022-08-12T04:59:46.630Z,93.70
2022-08-12T05:02:21.770Z,93.80
2022-08-12T05:05:00.747Z,93.60
2022-08-12T05:07:28.567Z,93.30
2022-08-12T05:09:59.970Z,93.30
2022-08-12T05:12:37.758Z,93.20
2022-08-12T05:15:19.833Z,93.00
2022-08-12T05:17:55.341Z,92.80
2022-08-12T05:20:23.025Z,92.60
2022-08-12T05:22:53.140Z,92.70
2022-08-12T05:25:24.064Z,92.60
2022-08-12T05:27:58.656Z,92.70
2022-08-12T05:30:33.411Z,92.50
2022-08-12T05:33:05.569Z,92.40
2022-08-12T05:35:36.899Z,92.30
2022-08-12T05:38:22.605Z,92.10
2022-08-12T05:40:50.195Z,92.00
2022-08-12T05:43:17.913Z,92.00
2022-08-12T05:45:45.977Z,92.00
2022-08-12T05:48:13.882Z,92.40
2022-08-12T05:50:42.065Z,92.40
2022-08-12T05:53:09.429Z,92.20
2022-08-12T05:55:36.984Z,92.10
2022-08-12T05:58:05.940Z,91.90
2022-08-12T06:00:32.767Z,91.60
2022-08-12T06:03:02.840Z,91.20
2022-08-12T06:05:43.183Z,90.40
2022-08-12T06:08:21.841Z,89.30
2022-08-12T06:10:50.288Z,87.30
2022-08-12T06:13:28.242Z,85.20
2022-08-12T06:16:07.138Z,83.10
2022-08-12T06:18:34.162Z,81.00
2022-08-12T06:21:02.023Z,79.50
2022-08-12T06:23:29.977Z,78.20
2022-08-12T06:25:58.198Z,76.60
2022-08-12T06:28:25.859Z,75.50
2022-08-12T06:31:22.295Z,74.30
2022-08-12T06:33:55.584Z,73.20
2022-08-12T06:36:29.987Z,71.70
2022-08-12T06:39:00.907Z,70.60
2022-08-12T06:42:10.711Z,69.50
2022-08-12T06:44:33.474Z,68.30
2022-08-12T06:47:00.549Z,67.30
2022-08-12T06:49:33.354Z,66.10
2022-08-12T06:52:00.346Z,65.40
2022-08-12T06:54:30.753Z,64.60
2022-08-12T06:57:04.187Z,63.70
2022-08-12T06:59:32.438Z,63.30
2022-08-12T07:01:59.301Z,62.80
2022-08-12T07:04:36.428Z,61.60
2022-08-12T07:07:10.982Z,60.60
2022-08-12T07:10:04.158Z,60.10
2022-08-12T07:12:29.547Z,59.70
2022-08-12T07:15:01.486Z,59.10
2022-08-12T07:17:37.081Z,57.90
2022-08-12T07:20:29.526Z,57.90
2022-08-12T07:23:00.154Z,57.20
2022-08-12T07:25:38.521Z,56.70
2022-08-12T07:28:19.077Z,56.30
2022-08-12T07:30:49.106Z,55.20
2022-08-12T07:33:18.407Z,54.60
2022-08-12T07:35:48.002Z,54.30
2022-08-12T07:38:33.813Z,54.60
2022-08-12T07:41:14.523Z,53.20
2022-08-12T07:43:52.008Z,53.00
2022-08-12T07:46:25.770Z,52.80
2022-08-12T07:48:58.894Z,52.60
2022-08-12T07:51:26.820Z,52.10
2022-08-12T07:54:03.085Z,51.90
2022-08-12T07:56:31.609Z,51.50
2022-08-12T07:58:59.382Z,51.20
2022-08-12T08:01:26.869Z,50.70
2022-08-12T08:04:18.419Z,50.00
2022-08-12T08:06:48.136Z,49.80
2022-08-12T08:09:21.084Z,50.00
2022-08-12T08:12:06.934Z,49.30
2022-08-12T08:14:33.821Z,48.90
2022-08-12T08:17:06.376Z,48.60
2022-08-12T08:19:33.502Z,48.20
2022-08-12T08:22:24.935Z,48.00
2022-08-12T08:25:34.484Z,47.60
2022-08-12T08:27:54.707Z,47.30
2022-08-12T08:30:21.472Z,46.80
2022-08-12T08:32:48.674Z,46.70
2022-08-12T08:35:15.823Z,46.40
2022-08-12T08:37:46.861Z,46.30
2022-08-12T08:40:33.801Z,46.20
2022-08-12T08:43:00.870Z,45.90
2022-08-12T08:45:28.384Z,45.70
2022-08-12T08:47:59.636Z,45.30
2022-08-12T08:50:27.361Z,45.10
2022-08-12T08:52:54.364Z,44.60
2022-08-12T08:55:30.024Z,44.00
2022-08-12T08:58:04.394Z,43.80
2022-08-12T09:00:31.289Z,43.40
2022-08-12T09:02:59.315Z,43.30
2022-08-12T09:05:43.001Z,42.50
2022-08-12T09:08:19.259Z,42.50
2022-08-12T09:10:49.916Z,41.90
2022-08-12T09:13:29.217Z,41.80
2022-08-12T09:19:05.527Z,41.60
2022-08-12T09:21:54.130Z,41.30
2022-08-12T09:24:20.140Z,41.10
2022-08-12T09:26:49.526Z,40.00
2022-08-12T09:30:10.897Z,40.70
2022-08-12T09:32:11.620Z,40.20
2022-08-12T09:34:56.775Z,40.10
2022-08-12T09:37:26.498Z,39.20
2022-08-12T09:40:06.442Z,39.80
2022-08-12T09:43:16.662Z,38.70
2022-08-12T09:46:06.038Z,39.00
2022-08-12T09:48:36.651Z,38.40
2022-08-12T09:51:17.198Z,38.50
2022-08-12T09:54:05.540Z,37.70
2022-08-12T09:56:59.368Z,37.10
2022-08-12T10:00:12.661Z,36.50
2022-08-12T10:02:44.818Z,36.20
2022-08-12T10:04:59.404Z,36.70
2022-08-12T10:07:28.557Z,36.60
2022-08-12T10:10:07.297Z,36.30
2022-08-12T10:13:12.062Z,36.40
2022-08-12T10:16:00.710Z,36.90
2022-08-12T10:18:26.482Z,37.40
2022-08-12T10:20:53.274Z,37.20
2022-08-12T10:23:20.346Z,37.20
2022-08-12T10:26:36.646Z,37.00
2022-08-12T10:30:37.781Z,36.80
2022-08-12T10:32:43.938Z,38.20
2022-08-12T10:35:09.273Z,38.30
2022-08-12T10:38:39.191Z,36.20
2022-08-12T10:40:28.545Z,36.90
2022-08-12T10:43:16.696Z,36.80
2022-08-12T10:45:49.301Z,36.80
2022-08-12T10:48:26.899Z,36.60
2022-08-12T10:52:03.116Z,36.80
2022-08-12T10:54:00.694Z,35.40
2022-08-12T10:56:34.298Z,35.20
2022-08-12T10:59:03.744Z,35.10
2022-08-12T11:04:19.741Z,35.40
2022-08-12T11:04:35.892Z,34.40
2022-08-12T11:08:35.853Z,35.20
2022-08-12T11:10:00.625Z,35.10
2022-08-12T11:12:55.162Z,33.00
2022-08-12T11:15:24.195Z,32.20
2022-08-12T11:18:01.055Z,31.30
2022-08-12T11:20:30.726Z,31.70
2022-08-12T11:23:25.615Z,31.00
2022-08-12T11:25:57.403Z,32.10
2022-08-12T11:28:33.411Z,31.40
2022-08-12T11:31:02.633Z,30.60
2022-08-12T11:34:04.239Z,30.60
2022-08-12T11:36:17.666Z,30.60
2022-08-12T11:38:50.545Z,30.60
2022-08-12T11:41:31.131Z,30.60
2022-08-12T11:44:34.944Z,29.80
2022-08-12T11:46:54.382Z,29.70
2022-08-12T11:49:32.306Z,30.30
2022-08-12T11:52:04.387Z,31.00
2022-08-12T11:54:51.029Z,30.00
2022-08-12T11:58:07.075Z,29.90
2022-08-12T12:02:52.667Z,30.20
2022-08-12T12:05:20.418Z,30.00
2022-08-12T12:08:37.218Z,30.00
2022-08-12T12:10:35.918Z,29.80
2022-08-12T12:13:03.162Z,29.40
2022-08-12T12:15:40.640Z,29.20
2022-08-12T12:18:30.985Z,29.50
2022-08-12T12:21:01.989Z,30.30
2022-08-12T12:23:36.117Z,30.30
2022-08-12T12:26:07.991Z,30.00
2022-08-12T12:28:37.295Z,30.50
2022-08-12T12:31:15.047Z,29.80
2022-08-12T12:33:57.913Z,29.90
2022-08-12T12:36:30.140Z,30.20
2022-08-12T12:38:58.429Z,31.20
2022-08-12T12:42:41.658Z,31.90
2022-08-12T12:44:26.102Z,31.10
2022-08-12T12:47:01.165Z,30.10
2022-08-12T12:49:28.033Z,29.90
2022-08-12T12:52:18.556Z,29.40
2022-08-12T12:54:52.348Z,29.30
2022-08-12T12:57:21.537Z,29.10
2022-08-12T13:00:16.611Z,28.50
2022-08-12T13:02:53.714Z,28.00
2022-08-12T13:05:42.076Z,28.00
2022-08-12T13:08:35.843Z,28.20
2022-08-12T13:11:05.925Z,28.50
2022-08-12T13:14:06.989Z,27.80
2022-08-12T13:16:27.137Z,27.50
2022-08-12T13:18:56.965Z,27.60
2022-08-12T13:21:33.140Z,27.70
2022-08-12T13:24:09.620Z,27.90
2022-08-12T13:26:39.871Z,27.50
2022-08-12T13:29:06.753Z,28.40
2022-08-12T13:32:02.005Z,29.10
2022-08-12T13:34:33.655Z,28.50
2022-08-12T13:37:09.712Z,28.30
2022-08-12T13:39:38.534Z,28.50
2022-08-12T13:42:14.470Z,28.10
2022-08-12T13:44:42.500Z,28.00
2022-08-12T13:47:18.861Z,28.00
2022-08-12T13:49:54.615Z,27.80
2022-08-12T13:52:23.415Z,27.80
2022-08-12T13:54:56.306Z,27.60
2022-08-12T13:57:26.214Z,27.60
2022-08-12T13:59:55.640Z,27.80
2022-08-12T14:02:27.429Z,27.50
2022-08-12T14:04:56.649Z,27.50
2022-08-12T14:07:25.940Z,27.30
2022-08-12T14:10:11.966Z,27.50
2022-08-12T14:12:54.583Z,27.10
2022-08-12T14:15:37.304Z,27.00
2022-08-12T14:18:15.787Z,27.30
2022-08-12T14:20:48.096Z,26.60
2022-08-12T14:24:04.453Z,27.10
2022-08-12T14:26:20.005Z,26.50
2022-08-12T14:28:57.624Z,26.30
2022-08-12T14:31:32.013Z,24.70
2022-08-12T14:33:59.745Z,24.50
2022-08-12T14:36:26.689Z,25.10
2022-08-12T14:38:55.879Z,26.00
2022-08-12T14:41:36.947Z,26.40
2022-08-12T14:44:57.682Z,26.60
2022-08-12T14:47:00.583Z,26.20
2022-08-12T14:50:33.485Z,25.10
2022-08-12T14:52:55.916Z,24.50
2022-08-12T14:57:58.229Z,24.90
2022-08-12T15:00:52.131Z,24.60
2022-08-12T15:03:23.170Z,24.60
2022-08-12T15:06:06.608Z,24.90
2022-08-12T15:08:40.105Z,25.10
2022-08-12T15:11:13.515Z,24.90
2022-08-12T15:13:46.157Z,24.80
2022-08-12T15:16:13.534Z,25.40
2022-08-12T15:18:55.451Z,25.90
2022-08-12T15:21:26.161Z,25.70
2022-08-12T15:24:12.889Z,26.00
2022-08-12T15:26:42.258Z,26.50
2022-08-12T15:29:10.461Z,27.10
2022-08-12T15:32:01.292Z,27.00
2022-08-12T15:34:25.927Z,27.10
2022-08-12T15:36:57.658Z,27.30
2022-08-12T15:39:25.315Z,27.70
2022-08-12T15:41:55.507Z,27.60
2022-08-12T15:44:41.871Z,28.10
2022-08-12T15:47:10.535Z,27.70
2022-08-12T15:49:54.659Z,27.40
2022-08-12T15:52:28.877Z,27.60
2022-08-12T15:54:59.339Z,27.20
2022-08-12T15:57:33.727Z,27.30
2022-08-12T16:00:07.249Z,27.60
2022-08-12T16:02:50.977Z,27.50
2022-08-12T16:06:12.715Z,27.80
2022-08-12T16:08:18.465Z,28.10
2022-08-12T16:10:50.848Z,28.50
2022-08-12T16:13:32.335Z,29.10
2022-08-12T16:16:20.946Z,29.40
2022-08-12T16:18:57.364Z,29.50
2022-08-12T16:21:51.590Z,29.10
2022-08-12T16:24:14.479Z,28.90
2022-08-12T16:26:41.422Z,29.50
2022-08-12T16:29:15.861Z,30.20
2022-08-12T16:31:44.829Z,31.10
2022-08-12T16:34:41.979Z,31.40
2022-08-12T16:37:07.646Z,31.90
2022-08-12T16:40:00.978Z,32.40
2022-08-12T16:42:28.042Z,33.20
2022-08-12T16:45:02.210Z,33.50
2022-08-12T16:47:57.286Z,33.70
2022-08-12T16:50:19.418Z,33.80
2022-08-12T16:52:50.830Z,34.10
2022-08-12T16:55:18.860Z,34.10
2022-08-12T16:57:49.461Z,34.40
2022-08-12T17:00:24.859Z,34.40
2022-08-12T17:02:58.350Z,34.30
2022-08-12T17:05:31.317Z,34.40
2022-08-12T17:08:00.389Z,34.80
2022-08-12T17:10:35.940Z,34.90
2022-08-12T17:13:09.421Z,35.10
2022-08-12T17:15:57.113Z,35.10
2022-08-12T17:18:43.219Z,35.10
2022-08-12T17:21:17.491Z,35.10
2022-08-12T17:23:54.306Z,35.40
2022-08-12T17:26:30.872Z,35.20
2022-08-12T17:29:00.109Z,35.40
2022-08-12T17:31:59.624Z,35.50
2022-08-12T17:34:36.281Z,36.00
2022-08-12T17:37:06.178Z,35.90
2022-08-12T17:40:13.766Z,36.00
2022-08-12T17:42:34.384Z,36.10
2022-08-12T17:45:18.012Z,36.30
2022-08-12T17:48:00.984Z,36.40
2022-08-12T17:50:35.782Z,35.70
2022-08-12T17:53:03.891Z,35.90
2022-08-12T17:55:44.688Z,36.20
2022-08-12T17:58:35.758Z,36.50
2022-08-12T18:01:11.335Z,36.90
2022-08-12T18:04:05.655Z,37.40
2022-08-12T18:06:28.564Z,38.40
2022-08-12T18:08:59.746Z,40.20
2022-08-12T18:12:05.812Z,40.80
2022-08-12T18:14:36.607Z,41.70
2022-08-12T18:17:08.758Z,42.30
2022-08-12T18:20:05.113Z,42.80
2022-08-12T18:22:34.028Z,43.20
2022-08-12T18:25:06.844Z,43.70
2022-08-12T18:28:15.795Z,44.10
2022-08-12T18:30:45.013Z,44.50
2022-08-12T18:33:23.596Z,45.00
2022-08-12T18:35:53.496Z,45.10
2022-08-12T18:38:24.664Z,45.40
2022-08-12T18:41:21.042Z,45.50
2022-08-12T18:44:02.535Z,45.20
2022-08-12T18:46:55.752Z,44.90
2022-08-12T18:49:37.666Z,44.90
2022-08-12T18:52:11.237Z,45.60
2022-08-12T18:54:53.237Z,45.90
2022-08-12T18:57:59.703Z,46.00
2022-08-12T19:00:20.867Z,46.10
2022-08-12T19:02:52.546Z,46.00
2022-08-12T19:05:20.676Z,46.00
2022-08-12T19:08:00.593Z,46.20
2022-08-12T19:10:32.212Z,46.40
2022-08-12T19:13:23.393Z,46.80
2022-08-12T19:15:57.943Z,47.20
2022-08-12T19:18:29.517Z,47.60
2022-08-12T19:21:06.487Z,47.70
2022-08-12T19:23:34.962Z,48.00
2022-08-12T19:26:05.062Z,48.30
2022-08-12T19:28:34.512Z,48.60
2022-08-12T19:31:45.247Z,48.80
2022-08-12T19:38:02.932Z,49.10
2022-08-12T19:40:32.568Z,49.50
2022-08-12T19:43:19.705Z,49.80
2022-08-12T19:45:51.189Z,50.20
2022-08-12T19:48:20.455Z,50.50
2022-08-12T19:50:53.046Z,51.00
2022-08-12T19:53:24.504Z,51.20
2022-08-12T19:55:54.660Z,51.30
2022-08-12T19:58:23.430Z,51.10
2022-08-12T20:00:54.316Z,51.10
2022-08-12T20:03:39.459Z,51.00
2022-08-12T20:06:22.132Z,51.10
2022-08-12T20:08:56.711Z,51.30
2022-08-12T20:12:13.916Z,52.00
2022-08-12T20:14:19.718Z,51.80
2022-08-12T20:17:01.530Z,52.00
2022-08-12T20:20:01.291Z,52.10
2022-08-12T20:22:29.450Z,52.20
2022-08-12T20:25:13.810Z,52.60
2022-08-12T20:28:03.123Z,52.70
2022-08-12T20:30:52.555Z,53.00
2022-08-12T20:33:32.735Z,53.30
2022-08-12T20:36:40.368Z,53.60
2022-08-12T20:39:03.172Z,53.60
2022-08-12T20:41:30.138Z,53.80
2022-08-12T20:43:59.638Z,54.10
2022-08-12T20:46:33.816Z,54.40
2022-08-12T20:49:14.807Z,54.40
2022-08-12T20:51:54.963Z,54.70
2022-08-12T20:54:32.850Z,55.00
2022-08-12T20:57:01.941Z,55.00
2022-08-12T20:59:47.708Z,55.20
2022-08-12T21:02:15.292Z,55.50
2022-08-12T21:05:00.430Z,55.90
2022-08-12T21:07:27.538Z,56.10
2022-08-12T21:10:03.334Z,56.20
2022-08-12T21:12:34.524Z,56.40
2022-08-12T21:15:23.760Z,56.50
2022-08-12T21:18:11.593Z,56.80
2022-08-12T21:20:54.505Z,57.00
2022-08-12T21:23:22.675Z,57.10
2022-08-12T21:25:55.956Z,57.30
2022-08-12T21:28:30.874Z,57.90
2022-08-12T21:32:35.964Z,58.20
2022-08-12T21:34:07.605Z,58.90
2022-08-12T21:36:48.146Z,58.90
2022-08-12T21:39:23.356Z,59.10
2022-08-12T21:42:00.263Z,59.30
2022-08-12T21:45:45.502Z,59.50
2022-08-12T21:47:22.515Z,59.90
2022-08-12T21:50:04.350Z,59.90
2022-08-12T21:52:49.140Z,60.00
2022-08-12T21:55:19.742Z,60.20
2022-08-12T21:57:53.931Z,60.20
2022-08-12T22:00:34.409Z,60.50
2022-08-12T22:04:02.727Z,60.80
2022-08-12T22:06:31.782Z,61.10
2022-08-12T22:09:16.648Z,61.20
2022-08-12T22:11:56.019Z,61.40
2022-08-12T22:14:28.532Z,61.50
2022-08-12T22:16:57.500Z,61.80
2022-08-12T22:19:24.817Z,62.00
2022-08-12T22:21:58.464Z,62.20
2022-08-12T22:24:30.466Z,62.20
2022-08-12T22:27:18.288Z,62.40
2022-08-12T22:30:16.674Z,62.70
2022-08-12T22:32:50.640Z,63.00
2022-08-12T22:35:29.970Z,63.30
2022-08-12T22:38:20.889Z,63.30
2022-08-12T22:41:01.517Z,63.60
2022-08-12T22:44:01.015Z,63.80
2022-08-12T22:46:53.471Z,64.10
2022-08-12T22:49:36.960Z,64.50
2022-08-12T22:52:18.404Z,64.90
2022-08-12T22:55:03.035Z,65.20
2022-08-12T22:57:54.401Z,65.40
2022-08-12T23:00:23.558Z,65.70
2022-08-12T23:02:51.676Z,66.30
2022-08-12T23:05:23.842Z,66.20
2022-08-12T23:08:13.851Z,66.40
2022-08-12T23:10:46.279Z,66.40
2022-08-12T23:13:43.072Z,66.90
2022-08-12T23:16:28.202Z,67.10
2022-08-12T23:19:17.604Z,67.40
2022-08-12T23:22:06.225Z,67.70
2022-08-12T23:24:53.891Z,68.10
2022-08-12T23:27:51.703Z,68.50
2022-08-12T23:30:30.970Z,68.80
2022-08-12T23:33:01.228Z,68.80
2022-08-12T23:35:46.001Z,69.10
2022-08-12T23:38:30.380Z,69.50
2022-08-12T23:41:01.512Z,70.00
2022-08-12T23:43:39.008Z,70.20
2022-08-12T23:46:10.741Z,70.80
2022-08-12T23:48:38.490Z,71.20
2022-08-12T23:51:21.755Z,71.60
2022-08-12T23:53:59.809Z,71.80
2022-08-12T23:56:32.734Z,72.10
2022-08-12T23:59:03.903Z,72.20
